^^
Datos históricos de la estación: Murcia-Puente Tocinos
Diario Informe para Marzo 1, 2019 Unidades:  Métrico    Inglés   Ambas
Diario Semanal Mensual Anual Configurable
  Máximo: Mínimo: Media:
Temperatura: 23.5 °C 8.1 °C 15 °C
Punto de rocio: 10.7 °C 2.1 °C 5.5 °C
Humedad: 81% 27% 55%
Velocidad viento: 14.8km/h 0.0km/h 5.3km/h
Racha viento: 22.2km/h - -
Viento- - South
Presión: 1023.6 hPa 1018.8 hPa -
Precipitación: 0.0 mm    
Historical Graphs
 
 
Tabla de datos para Marzo 1, 2019
Hora Temperatura Punto de rocio Presión Viento Velocidad viento Racha viento Humedad Intensidad lluvia(por hora) Nubes
00:04 14.3 °C 6.4 °C 1023.6 hPa SSE 3.2 km/h 3.7 km/h 59% 0.0 mm CLR
00:09 14.2 °C 6.6 °C 1023.6 hPa SSE 2.9 km/h 5.6 km/h 60% 0.0 mm CLR
00:14 14.2 °C 6.1 °C 1023.6 hPa SSE 2.9 km/h 5.6 km/h 58% 0.0 mm CLR
00:19 14.2 °C 5.8 °C 1023.3 hPa SSE 3.2 km/h 10.0 km/h 57% 0.0 mm CLR
00:24 14.2 °C 5.6 °C 1023.3 hPa SSE 3.2 km/h 7.4 km/h 56% 0.0 mm CLR
00:29 14.2 °C 5.3 °C 1023.3 hPa South 5.8 km/h 7.4 km/h 55% 0.0 mm CLR
00:34 14.1 °C 5.4 °C 1023.2 hPa South 5.8 km/h 7.4 km/h 56% 0.0 mm CLR
00:39 14.1 °C 5.4 °C 1023.2 hPa South 4.7 km/h 7.4 km/h 56% 0.0 mm CLR
00:44 14.0 °C 5.6 °C 1023.2 hPa South 4.7 km/h 5.6 km/h 57% 0.0 mm CLR
00:49 13.9 °C 5.5 °C 1023.2 hPa South 3.9 km/h 3.9 km/h 57% 0.0 mm CLR
00:54 13.7 °C 5.3 °C 1023.2 hPa South 3.9 km/h 3.7 km/h 57% 0.0 mm CLR
00:59 13.6 °C 5.2 °C 1023.2 hPa South 2.9 km/h 3.7 km/h 57% 0.0 mm CLR
01:04 13.5 °C 5.4 °C 1023.1 hPa South 2.9 km/h   58% 0.0 mm CLR
01:09 13.4 °C 5.8 °C 1023.1 hPa Calm     60% 0.0 mm CLR
01:14 13.2 °C 5.8 °C 1023.1 hPa Calm   3.7 km/h 61% 0.0 mm CLR
01:19 13.0 °C 6.1 °C 1023.0 hPa Calm     63% 0.0 mm CLR
01:24 12.8 °C 6.2 °C 1023.0 hPa Calm     64% 0.0 mm CLR
01:29 12.7 °C 6.1 °C 1023.0 hPa Calm     64% 0.0 mm CLR
01:34 12.6 °C 6.2 °C 1022.9 hPa Calm     65% 0.0 mm CLR
01:39 12.6 °C 6.2 °C 1022.9 hPa Calm     65% 0.0 mm CLR
01:44 12.4 °C 6.0 °C 1022.9 hPa Calm     65% 0.0 mm CLR
01:49 12.4 °C 6.0 °C 1023.0 hPa Calm     65% 0.0 mm CLR
01:54 12.4 °C 5.3 °C 1023.0 hPa Calm   5.6 km/h 62% 0.0 mm CLR
01:59 12.3 °C 5.0 °C 1023.0 hPa South 2.9 km/h 7.4 km/h 61% 0.0 mm CLR
02:04 12.3 °C 5.0 °C 1022.9 hPa SSE 2.9 km/h 9.3 km/h 61% 0.0 mm CLR
02:09 12.2 °C 4.9 °C 1022.9 hPa SSE 5.8 km/h 5.6 km/h 61% 0.0 mm CLR
02:14 12.1 °C 4.8 °C 1022.9 hPa SSE 5.8 km/h 7.4 km/h 61% 0.0 mm CLR
02:19 11.9 °C 4.6 °C 1022.7 hPa SE 4.7 km/h 7.6 km/h 61% 0.0 mm CLR
02:24 11.7 °C 4.2 °C 1022.7 hPa SSE 4.7 km/h 9.3 km/h 60% 0.0 mm CLR
02:29 11.5 °C 4.2 °C 1022.7 hPa SSE 6.4 km/h 9.3 km/h 61% 0.0 mm CLR
02:34 11.4 °C 4.2 °C 1022.7 hPa SSE 6.4 km/h 5.6 km/h 61% 0.0 mm CLR
02:39 11.4 °C 3.9 °C 1022.7 hPa SSE 5.0 km/h 5.8 km/h 60% 0.0 mm CLR
02:44 11.4 °C 4.2 °C 1022.7 hPa SSE 5.0 km/h 4.7 km/h 61% 0.0 mm CLR
02:49 11.4 °C 3.9 °C 1022.7 hPa SSE 3.9 km/h 7.4 km/h 60% 0.0 mm CLR
02:54 11.4 °C 3.7 °C 1022.7 hPa SSE 3.9 km/h 9.3 km/h 59% 0.0 mm CLR
02:59 11.5 °C 3.8 °C 1022.7 hPa South 5.8 km/h 9.3 km/h 59% 0.0 mm CLR
03:04 11.6 °C 3.4 °C 1022.5 hPa SSW 5.8 km/h 9.3 km/h 57% 0.0 mm CLR
03:09 11.7 °C 3.4 °C 1022.5 hPa SSW 6.4 km/h 9.3 km/h 57% 0.0 mm CLR
03:14 11.7 °C 3.2 °C 1022.5 hPa SSW 6.4 km/h 7.4 km/h 56% 0.0 mm CLR
03:19 11.7 °C 2.9 °C 1022.4 hPa SSW 4.7 km/h 7.4 km/h 55% 0.0 mm CLR
03:24 11.7 °C 2.9 °C 1022.4 hPa SSW 4.7 km/h 7.4 km/h 55% 0.0 mm CLR
03:29 11.7 °C 2.9 °C 1022.4 hPa SSW 5.0 km/h 7.4 km/h 55% 0.0 mm CLR
03:34 11.7 °C 2.7 °C 1022.2 hPa SSW 5.0 km/h 7.4 km/h 54% 0.0 mm CLR
03:39 11.6 °C 2.8 °C 1022.2 hPa SSE 5.0 km/h 9.5 km/h 55% 0.0 mm CLR
03:44 11.4 °C 2.9 °C 1022.2 hPa SSW 5.0 km/h 9.3 km/h 56% 0.0 mm CLR
03:49 11.3 °C 2.8 °C 1022.1 hPa South 6.4 km/h 7.6 km/h 56% 0.0 mm CLR
03:54 11.2 °C 3.0 °C 1022.1 hPa SSE 6.4 km/h 9.3 km/h 57% 0.0 mm CLR
03:59 10.9 °C 2.9 °C 1022.1 hPa South 6.9 km/h 9.5 km/h 58% 0.0 mm CLR
04:04 10.7 °C 3.0 °C 1022.0 hPa South 6.9 km/h 11.1 km/h 59% 0.0 mm CLR
04:09 10.6 °C 2.9 °C 1022.0 hPa SSW 8.4 km/h 11.1 km/h 59% 0.0 mm CLR
04:14 10.6 °C 2.9 °C 1022.0 hPa SW 8.4 km/h 7.4 km/h 59% 0.0 mm CLR
04:19 10.7 °C 2.8 °C 1021.9 hPa SW 6.9 km/h 7.4 km/h 58% 0.0 mm CLR
04:24 10.9 °C 2.9 °C 1021.9 hPa SW 6.9 km/h 7.4 km/h 58% 0.0 mm CLR
04:29 11.1 °C 2.7 °C 1021.9 hPa SW 5.8 km/h 9.3 km/h 56% 0.0 mm CLR
04:34 11.2 °C 2.5 °C 1021.9 hPa South 5.8 km/h 7.4 km/h 55% 0.0 mm CLR
04:39 11.3 °C 2.6 °C 1021.9 hPa SW 5.8 km/h 7.4 km/h 55% 0.0 mm CLR
04:44 11.3 °C 2.3 °C 1021.9 hPa South 5.8 km/h 9.3 km/h 54% 0.0 mm CLR
04:49 11.2 °C 2.2 °C 1021.9 hPa SSE 6.4 km/h 9.3 km/h 54% 0.0 mm CLR
04:54 10.9 °C 2.7 °C 1021.9 hPa SSE 6.4 km/h 11.1 km/h 57% 0.0 mm CLR
04:59 10.4 °C 2.7 °C 1021.9 hPa SSE 6.4 km/h 9.3 km/h 59% 0.0 mm CLR
05:04 10.1 °C 2.7 °C 1021.8 hPa SSE 6.4 km/h 11.1 km/h 60% 0.0 mm CLR
05:09 9.8 °C 2.6 °C 1021.8 hPa South 8.4 km/h 11.1 km/h 61% 0.0 mm CLR
05:14 9.8 °C 2.6 °C 1021.8 hPa South 8.4 km/h 11.1 km/h 61% 0.0 mm CLR
05:19 9.9 °C 2.5 °C 1021.8 hPa South 6.9 km/h 7.4 km/h 60% 0.0 mm CLR
05:24 10.0 °C 2.6 °C 1021.8 hPa SSW 6.9 km/h 7.4 km/h 60% 0.0 mm CLR
05:29 10.1 °C 2.4 °C 1021.8 hPa SSE 5.0 km/h 7.4 km/h 59% 0.0 mm CLR
05:34 10.2 °C 2.6 °C 1021.8 hPa SSE 5.0 km/h 7.4 km/h 59% 0.0 mm CLR
05:39 10.2 °C 2.6 °C 1021.8 hPa South 5.0 km/h 8.4 km/h 59% 0.0 mm CLR
05:44 10.2 °C 2.6 °C 1021.8 hPa South 5.0 km/h 5.8 km/h 59% 0.0 mm CLR
05:49 10.2 °C 2.6 °C 1021.8 hPa South 5.0 km/h 7.4 km/h 59% 0.0 mm CLR
05:54 10.1 °C 2.4 °C 1021.8 hPa South 5.0 km/h 7.4 km/h 59% 0.0 mm CLR
05:59 9.9 °C 2.5 °C 1021.8 hPa SSE 5.0 km/h 9.3 km/h 60% 0.0 mm CLR
06:04 9.7 °C 2.6 °C 1021.9 hPa South 5.0 km/h 7.4 km/h 61% 0.0 mm CLR
06:09 9.5 °C 2.6 °C 1021.9 hPa South 6.4 km/h 7.4 km/h 62% 0.0 mm CLR
06:14 9.4 °C 2.5 °C 1021.9 hPa South 6.4 km/h 9.3 km/h 62% 0.0 mm CLR
06:19 9.4 °C 2.3 °C 1022.0 hPa South 6.9 km/h 9.3 km/h 61% 0.0 mm CLR
06:24 9.4 °C 2.3 °C 1022.0 hPa SSW 6.9 km/h 9.3 km/h 61% 0.0 mm CLR
06:29 9.5 °C 2.3 °C 1022.0 hPa SSW 5.8 km/h 8.4 km/h 61% 0.0 mm CLR
06:34 9.6 °C 2.2 °C 1022.1 hPa SSW 5.8 km/h 9.3 km/h 60% 0.0 mm CLR
06:39 9.7 °C 2.3 °C 1022.1 hPa South 6.4 km/h 7.4 km/h 60% 0.0 mm CLR
06:44 9.7 °C 2.3 °C 1022.1 hPa South 6.4 km/h 9.3 km/h 60% 0.0 mm CLR
06:49 9.8 °C 2.2 °C 1022.2 hPa SSW 6.9 km/h 11.1 km/h 59% 0.0 mm CLR
06:54 9.8 °C 2.2 °C 1022.2 hPa South 6.9 km/h 10.0 km/h 59% 0.0 mm CLR
06:59 9.8 °C 2.2 °C 1022.2 hPa South 7.6 km/h 9.3 km/h 59% 0.0 mm CLR
07:04 9.8 °C 2.2 °C 1022.3 hPa South 7.6 km/h 11.1 km/h 59% 0.0 mm CLR
07:09 9.7 °C 2.1 °C 1022.3 hPa NNE 7.6 km/h 7.4 km/h 59% 0.0 mm CLR
07:14 9.2 °C 2.3 °C 1022.3 hPa NNE 7.6 km/h 7.6 km/h 62% 0.0 mm CLR
07:19 8.8 °C 2.3 °C 1022.5 hPa NE 5.0 km/h 5.6 km/h 64% 0.0 mm CLR
07:24 8.6 °C 2.4 °C 1022.5 hPa NE 5.0 km/h 3.9 km/h 65% 0.0 mm CLR
07:29 8.4 °C 2.4 °C 1022.5 hPa NE 3.2 km/h 3.7 km/h 66% 0.0 mm CLR
07:34 8.3 °C 2.3 °C 1022.7 hPa NE 3.2 km/h 4.7 km/h 66% 0.0 mm CLR
07:39 8.3 °C 2.5 °C 1022.7 hPa NE 2.9 km/h 5.6 km/h 67% 0.0 mm CLR
07:44 8.2 °C 2.4 °C 1022.7 hPa NE 2.9 km/h   67% 0.0 mm CLR
07:49 8.2 °C 2.7 °C 1022.8 hPa East 2.9 km/h 7.4 km/h 68% 0.0 mm CLR
07:54 8.2 °C 2.7 °C 1022.8 hPa NNE 2.9 km/h 10.0 km/h 68% 0.0 mm CLR
07:59 8.3 °C 2.5 °C 1022.8 hPa NNW 5.0 km/h 7.4 km/h 67% 0.0 mm CLR
08:04 8.1 °C 2.6 °C 1023.1 hPa NNW 5.0 km/h 5.6 km/h 68% 0.0 mm CLR
08:09 8.1 °C 2.8 °C 1023.1 hPa NNW 3.2 km/h   69% 0.0 mm CLR
08:14 8.2 °C 2.8 °C 1023.1 hPa NNW 3.2 km/h 3.9 km/h 69% 0.0 mm CLR
08:19 8.4 °C 2.8 °C 1023.2 hPa NNW 2.3 km/h 3.9 km/h 68% 0.0 mm CLR
08:24 8.5 °C 2.9 °C 1023.2 hPa North 2.3 km/h 5.8 km/h 68% 0.0 mm CLR
08:29 8.6 °C 2.8 °C 1023.2 hPa North 3.2 km/h 4.7 km/h 67% 0.0 mm CLR
08:34 8.8 °C 2.8 °C 1023.2 hPa North 3.2 km/h 3.9 km/h 66% 0.0 mm CLR
08:39 9.1 °C 2.9 °C 1023.2 hPa North 2.9 km/h   65% 0.0 mm CLR
08:44 9.4 °C 3.2 °C 1023.2 hPa North 2.9 km/h 3.7 km/h 65% 0.0 mm CLR
08:49 9.7 °C 3.0 °C 1023.4 hPa Calm     63% 0.0 mm CLR
08:54 10.0 °C 3.1 °C 1023.4 hPa Calm   2.3 km/h 62% 0.0 mm CLR
08:59 10.3 °C 3.1 °C 1023.4 hPa Calm   3.7 km/h 61% 0.0 mm CLR
09:04 10.6 °C 2.9 °C 1023.4 hPa Calm   3.7 km/h 59% 0.0 mm CLR
09:09 10.9 °C 2.9 °C 1023.4 hPa North 2.3 km/h 3.7 km/h 58% 0.0 mm CLR
09:14 11.0 °C 3.1 °C 1023.4 hPa North 2.3 km/h   58% 0.0 mm CLR
09:19 11.4 °C 3.2 °C 1023.4 hPa North 2.3 km/h 3.9 km/h 57% 0.0 mm CLR
09:24 11.8 °C 3.3 °C 1023.4 hPa ENE 2.3 km/h 3.7 km/h 56% 0.0 mm CLR
09:29 11.9 °C 3.1 °C 1023.4 hPa ENE 2.9 km/h 2.3 km/h 55% 0.0 mm CLR
09:34 12.1 °C 3.3 °C 1023.5 hPa ENE 2.9 km/h 2.9 km/h 55% 0.0 mm CLR
09:39 12.1 °C 3.1 °C 1023.5 hPa Calm   5.6 km/h 54% 0.0 mm CLR
09:44 12.2 °C 3.4 °C 1023.5 hPa Calm     55% 0.0 mm CLR
09:49 12.7 °C 3.6 °C 1023.5 hPa NNW 2.3 km/h   54% 0.0 mm CLR
09:54 13.2 °C 3.6 °C 1023.5 hPa ESE 2.3 km/h 4.7 km/h 52% 0.0 mm CLR
09:59 13.4 °C 2.9 °C 1023.5 hPa ESE 2.3 km/h 3.7 km/h 49% 0.0 mm CLR
10:04 13.6 °C 2.8 °C 1023.5 hPa ESE 2.3 km/h 3.7 km/h 48% 0.0 mm CLR
10:09 13.7 °C 2.9 °C 1023.5 hPa ESE 2.3 km/h   48% 0.0 mm CLR
10:14 13.9 °C 3.1 °C 1023.5 hPa ESE 2.3 km/h 3.7 km/h 48% 0.0 mm CLR
10:19 14.4 °C 3.2 °C 1023.4 hPa Calm   7.4 km/h 47% 0.0 mm CLR
10:24 14.6 °C 3.1 °C 1023.4 hPa Calm   7.4 km/h 46% 0.0 mm CLR
10:29 14.7 °C 3.5 °C 1023.4 hPa SE 4.7 km/h 3.7 km/h 47% 0.0 mm CLR
10:34 14.9 °C 3.4 °C 1023.5 hPa SE 4.7 km/h 7.4 km/h 46% 0.0 mm CLR
10:39 15.2 °C 3.0 °C 1023.5 hPa SE 3.9 km/h 4.7 km/h 44% 0.0 mm CLR
10:44 15.6 °C 3.4 °C 1023.5 hPa SE 3.9 km/h 5.0 km/h 44% 0.0 mm CLR
10:49 15.8 °C 3.2 °C 1023.4 hPa SSW 3.2 km/h 7.4 km/h 43% 0.0 mm CLR
10:54 15.9 °C 3.0 °C 1023.4 hPa SSW 3.2 km/h 3.7 km/h 42% 0.0 mm CLR
10:59 16.2 °C 3.6 °C 1023.4 hPa NNE 2.9 km/h 5.6 km/h 43% 0.0 mm CLR
11:04 16.3 °C 3.7 °C 1023.2 hPa NNW 2.9 km/h 5.6 km/h 43% 0.0 mm CLR
11:09 16.4 °C 3.8 °C 1023.2 hPa NW 2.9 km/h 3.2 km/h 43% 0.0 mm CLR
11:14 16.7 °C 4.1 °C 1023.2 hPa NNW 2.9 km/h 5.8 km/h 43% 0.0 mm CLR
11:19 16.8 °C 4.2 °C 1023.2 hPa North 2.9 km/h 3.7 km/h 43% 0.0 mm CLR
11:24 16.9 °C 4.2 °C 1023.2 hPa North 2.9 km/h   43% 0.0 mm CLR
11:29 17.2 °C 4.5 °C 1023.2 hPa Calm   3.7 km/h 43% 0.0 mm CLR
11:34 17.4 °C 4.3 °C 1023.0 hPa Calm     42% 0.0 mm CLR
11:39 17.6 °C 4.2 °C 1023.0 hPa NNW 2.3 km/h   41% 0.0 mm CLR
11:44 17.8 °C 4.7 °C 1023.0 hPa NW 2.3 km/h 3.7 km/h 42% 0.0 mm CLR
11:49 17.9 °C 4.4 °C 1022.8 hPa NW 2.3 km/h 5.6 km/h 41% 0.0 mm CLR
11:54 18.1 °C 4.3 °C 1022.8 hPa NW 2.3 km/h 1.9 km/h 40% 0.0 mm CLR
11:59 18.6 °C 4.4 °C 1022.8 hPa Calm   3.9 km/h 39% 0.0 mm CLR
12:04 18.8 °C 4.9 °C 1022.6 hPa Calm   7.4 km/h 40% 0.0 mm CLR
12:09 18.9 °C 4.6 °C 1022.6 hPa WNW 2.3 km/h 5.6 km/h 39% 0.0 mm CLR
12:14 18.9 °C 4.6 °C 1022.6 hPa WSW 2.3 km/h 6.9 km/h 39% 0.0 mm CLR
12:19 18.8 °C 4.6 °C 1022.4 hPa SW 3.9 km/h 7.4 km/h 39% 0.0 mm CLR
12:24 18.8 °C 5.3 °C 1022.4 hPa NNW 3.9 km/h 7.4 km/h 41% 0.0 mm CLR
12:29 18.9 °C 5.0 °C 1022.4 hPa NNW 3.9 km/h 2.9 km/h 40% 0.0 mm CLR
12:34 19.2 °C 4.9 °C 1022.1 hPa NNW 3.9 km/h   39% 0.0 mm CLR
12:39 19.6 °C 4.5 °C 1022.1 hPa SSW 2.3 km/h 9.3 km/h 37% 0.0 mm CLR
12:44 19.7 °C 4.6 °C 1022.1 hPa ESE 2.3 km/h 7.4 km/h 37% 0.0 mm CLR
12:49 19.9 °C 4.4 °C 1021.8 hPa NNE 4.7 km/h 5.6 km/h 36% 0.0 mm CLR
12:54 20.1 °C 4.6 °C 1021.8 hPa NE 4.7 km/h 4.7 km/h 36% 0.0 mm CLR
12:59 20.4 °C 4.0 °C 1021.8 hPa NE 2.9 km/h   34% 0.0 mm CLR
13:04 20.7 °C 4.3 °C 1021.6 hPa NNW 2.9 km/h 7.4 km/h 34% 0.0 mm CLR
13:09 20.8 °C 3.9 °C 1021.6 hPa NE 2.9 km/h 5.0 km/h 33% 0.0 mm CLR
13:14 20.9 °C 3.6 °C 1021.6 hPa NE 2.9 km/h 7.4 km/h 32% 0.0 mm CLR
13:19 20.9 °C 3.6 °C 1021.3 hPa ENE 3.2 km/h 7.4 km/h 32% 0.0 mm CLR
13:24 20.8 °C 3.1 °C 1021.3 hPa ENE 3.2 km/h 7.4 km/h 31% 0.0 mm CLR
13:29 20.9 °C 3.6 °C 1021.3 hPa ENE 3.9 km/h 5.6 km/h 32% 0.0 mm CLR
13:34 21.0 °C 3.7 °C 1021.0 hPa NE 3.9 km/h 3.7 km/h 32% 0.0 mm CLR
13:39 21.3 °C 2.1 °C 1021.0 hPa ESE 2.9 km/h 7.4 km/h 28% 0.0 mm CLR
13:44 21.5 °C 2.2 °C 1021.0 hPa ESE 2.9 km/h 3.7 km/h 28% 0.0 mm CLR
13:49 21.9 °C 2.6 °C 1020.7 hPa ESE 3.2 km/h 3.7 km/h 28% 0.0 mm CLR
13:54 22.3 °C 2.9 °C 1020.7 hPa ESE 3.2 km/h 3.7 km/h 28% 0.0 mm CLR
13:59 22.6 °C 2.7 °C 1020.7 hPa South 2.9 km/h 6.9 km/h 27% 0.0 mm CLR
14:04 22.4 °C 2.4 °C 1020.4 hPa ESE 2.9 km/h 7.4 km/h 27% 0.0 mm CLR
14:09 22.4 °C 2.4 °C 1020.4 hPa WSW 3.2 km/h 7.4 km/h 27% 0.0 mm CLR
14:14 22.6 °C 3.2 °C 1020.4 hPa SW 3.2 km/h 7.4 km/h 28% 0.0 mm CLR
14:19 22.4 °C 3.0 °C 1020.1 hPa ESE 4.7 km/h 9.3 km/h 28% 0.0 mm CLR
14:24 22.3 °C 2.9 °C 1020.1 hPa NE 4.7 km/h 4.7 km/h 28% 0.0 mm CLR
14:29 22.4 °C 3.5 °C 1020.1 hPa ENE 4.7 km/h 6.9 km/h 29% 0.0 mm CLR
14:34 22.4 °C 3.5 °C 1019.8 hPa NE 4.7 km/h 5.6 km/h 29% 0.0 mm CLR
14:39 22.6 °C 3.2 °C 1019.8 hPa ENE 3.2 km/h 3.7 km/h 28% 0.0 mm CLR
14:44 22.7 °C 3.2 °C 1019.8 hPa ENE 3.2 km/h 3.9 km/h 28% 0.0 mm CLR
14:49 22.8 °C 3.3 °C 1019.5 hPa NNW 2.9 km/h 8.7 km/h 28% 0.0 mm CLR
14:53 22.7 °C 3.7 °C 1019.5 hPa NNW 2.9 km/h 9.3 km/h 29% 0.0 mm CLR
14:59 22.7 °C 3.7 °C 1019.5 hPa ENE 5.8 km/h 5.6 km/h 29% 0.0 mm CLR
15:04 22.7 °C 3.2 °C 1019.3 hPa ENE 5.8 km/h 7.4 km/h 28% 0.0 mm CLR
15:09 22.8 °C 3.3 °C 1019.3 hPa ENE 3.9 km/h 3.7 km/h 28% 0.0 mm CLR
15:14 23.1 °C 3.6 °C 1019.3 hPa ENE 3.9 km/h 5.6 km/h 28% 0.0 mm CLR
15:19 23.3 °C 3.2 °C 1019.1 hPa Calm   7.4 km/h 27% 0.0 mm CLR
15:24 23.4 °C 3.3 °C 1019.1 hPa Calm   10.0 km/h 27% 0.0 mm CLR
15:29 23.2 °C 3.7 °C 1019.1 hPa NE 4.7 km/h 9.3 km/h 28% 0.0 mm CLR
15:34 23.2 °C 3.7 °C 1019.0 hPa ENE 4.7 km/h 11.1 km/h 28% 0.0 mm CLR
15:39 23.1 °C 3.6 °C 1019.0 hPa ENE 5.8 km/h 5.6 km/h 28% 0.0 mm CLR
15:44 23.3 °C 3.8 °C 1019.0 hPa South 5.8 km/h 6.4 km/h 28% 0.0 mm CLR
15:49 23.5 °C 4.9 °C 1018.9 hPa SE 3.9 km/h 10.3 km/h 30% 0.0 mm CLR
15:54 23.3 °C 5.7 °C 1018.9 hPa SE 3.9 km/h 16.7 km/h 32% 0.0 mm CLR
15:59 23.1 °C 5.9 °C 1018.9 hPa ENE 10.0 km/h 14.8 km/h 33% 0.0 mm CLR
16:04 22.8 °C 6.6 °C 1018.8 hPa ESE 10.0 km/h 15.6 km/h 35% 0.0 mm CLR
16:09 22.6 °C 7.2 °C 1018.8 hPa ESE 11.9 km/h 18.5 km/h 37% 0.0 mm CLR
16:14 22.3 °C 6.9 °C 1018.8 hPa ESE 11.9 km/h 16.7 km/h 37% 0.0 mm CLR
16:19 22.1 °C 7.5 °C 1018.8 hPa ESE 12.2 km/h 16.7 km/h 39% 0.0 mm CLR
16:24 21.8 °C 7.6 °C 1018.8 hPa SE 12.2 km/h 16.7 km/h 40% 0.0 mm CLR
16:29 21.6 °C 7.4 °C 1018.8 hPa ESE 11.9 km/h 22.2 km/h 40% 0.0 mm CLR
16:34 21.2 °C 7.4 °C 1018.9 hPa ESE 11.9 km/h 18.5 km/h 41% 0.0 mm CLR
16:39 21.0 °C 7.6 °C 1018.9 hPa ESE 14.8 km/h 18.5 km/h 42% 0.0 mm CLR
16:44 20.9 °C 7.5 °C 1018.9 hPa ESE 14.8 km/h 16.7 km/h 42% 0.0 mm CLR
16:49 20.8 °C 7.4 °C 1018.8 hPa SE 13.0 km/h 18.0 km/h 42% 0.0 mm CLR
16:54 20.8 °C 7.4 °C 1018.8 hPa East 13.0 km/h 14.8 km/h 42% 0.0 mm CLR
16:59 20.7 °C 7.3 °C 1018.8 hPa SE 10.3 km/h 16.7 km/h 42% 0.0 mm CLR
17:04 20.5 °C 7.5 °C 1018.8 hPa ESE 10.3 km/h 16.7 km/h 43% 0.0 mm CLR
17:09 20.4 °C 7.4 °C 1018.8 hPa ENE 11.1 km/h 13.0 km/h 43% 0.0 mm CLR
17:14 20.3 °C 7.7 °C 1018.8 hPa ESE 11.1 km/h 16.1 km/h 44% 0.0 mm CLR
17:19 20.3 °C 7.7 °C 1018.8 hPa East 8.7 km/h 13.0 km/h 44% 0.0 mm CLR
17:24 20.2 °C 7.9 °C 1018.8 hPa ENE 8.7 km/h 11.1 km/h 45% 0.0 mm CLR
17:29 20.0 °C 8.0 °C 1018.8 hPa East 8.4 km/h 11.1 km/h 46% 0.0 mm CLR
17:34 19.8 °C 7.8 °C 1018.8 hPa ESE 8.4 km/h 16.7 km/h 46% 0.0 mm CLR
17:39 19.8 °C 8.2 °C 1018.8 hPa ESE 10.0 km/h 13.7 km/h 47% 0.0 mm CLR
17:44 19.9 °C 8.2 °C 1018.8 hPa ESE 10.0 km/h 9.3 km/h 47% 0.0 mm CLR
17:49 19.8 °C 8.4 °C 1018.8 hPa North 6.9 km/h 7.4 km/h 48% 0.0 mm CLR
17:54 19.8 °C 8.4 °C 1018.8 hPa NNE 6.9 km/h 11.9 km/h 48% 0.0 mm CLR
17:59 19.7 °C 8.4 °C 1018.8 hPa NE 6.9 km/h 14.8 km/h 48% 0.0 mm CLR
18:04 19.5 °C 8.2 °C 1018.9 hPa NE 6.9 km/h 14.8 km/h 48% 0.0 mm CLR
18:09 19.3 °C 8.0 °C 1018.9 hPa North 10.0 km/h 13.0 km/h 48% 0.0 mm CLR
18:14 19.1 °C 8.1 °C 1018.9 hPa North 10.0 km/h 14.8 km/h 49% 0.0 mm CLR
18:19 18.8 °C 8.2 °C 1019.0 hPa NNE 8.7 km/h 13.7 km/h 50% 0.0 mm CLR
18:24 18.6 °C 7.9 °C 1019.0 hPa North 8.7 km/h 20.4 km/h 50% 0.0 mm CLR
18:29 18.4 °C 8.1 °C 1019.0 hPa NE 10.0 km/h 16.7 km/h 51% 0.0 mm CLR
18:34 18.2 °C 7.9 °C 1019.1 hPa NNE 10.0 km/h 20.1 km/h 51% 0.0 mm CLR
18:39 17.9 °C 7.9 °C 1019.1 hPa NNE 13.0 km/h 22.2 km/h 52% 0.0 mm CLR
18:44 17.8 °C 8.1 °C 1019.1 hPa NNE 13.0 km/h 16.7 km/h 53% 0.0 mm CLR
18:49 17.6 °C 8.7 °C 1019.3 hPa NNE 12.2 km/h 16.7 km/h 56% 0.0 mm CLR
18:54 17.3 °C 8.9 °C 1019.3 hPa NE 12.2 km/h 18.5 km/h 58% 0.0 mm CLR
18:59 17.1 °C 9.0 °C 1019.3 hPa NE 12.2 km/h 19.8 km/h 59% 0.0 mm CLR
19:04 16.8 °C 9.2 °C 1019.5 hPa North 12.2 km/h 20.4 km/h 61% 0.0 mm CLR
19:09 16.6 °C 9.3 °C 1019.5 hPa NNE 13.7 km/h 16.7 km/h 62% 0.0 mm CLR
19:14 16.4 °C 9.1 °C 1019.5 hPa NNE 13.7 km/h 19.8 km/h 62% 0.0 mm CLR
19:19 16.2 °C 8.9 °C 1019.7 hPa NE 11.9 km/h 22.2 km/h 62% 0.0 mm CLR
19:24 16.1 °C 9.1 °C 1019.7 hPa North 11.9 km/h 20.4 km/h 63% 0.0 mm CLR
19:29 15.9 °C 8.8 °C 1019.7 hPa NNE 13.7 km/h 13.0 km/h 63% 0.0 mm CLR
19:34 15.8 °C 8.8 °C 1019.8 hPa North 13.7 km/h 14.8 km/h 63% 0.0 mm CLR
19:39 15.7 °C 8.4 °C 1019.8 hPa North 11.1 km/h 16.7 km/h 62% 0.0 mm CLR
19:44 15.6 °C 8.3 °C 1019.8 hPa North 11.1 km/h 14.8 km/h 62% 0.0 mm CLR
19:49 15.4 °C 8.6 °C 1019.9 hPa NE 11.9 km/h 20.4 km/h 64% 0.0 mm CLR
19:54 15.3 °C 9.2 °C 1019.9 hPa NNE 11.9 km/h 14.8 km/h 67% 0.0 mm CLR
19:59 15.2 °C 9.8 °C 1019.9 hPa NNW 11.1 km/h 14.8 km/h 70% 0.0 mm CLR
20:04 15.1 °C 10.1 °C 1020.0 hPa NE 11.1 km/h 14.8 km/h 72% 0.0 mm CLR
20:09 14.9 °C 10.1 °C 1020.0 hPa NE 10.0 km/h 16.1 km/h 73% 0.0 mm CLR
20:14 14.8 °C 10.2 °C 1020.0 hPa NNE 10.0 km/h 16.7 km/h 74% 0.0 mm CLR
20:19 14.7 °C 10.3 °C 1020.2 hPa NE 10.3 km/h 15.6 km/h 75% 0.0 mm CLR
20:24 14.6 °C 10.4 °C 1020.2 hPa NE 10.3 km/h 13.0 km/h 76% 0.0 mm CLR
20:29 14.5 °C 10.5 °C 1020.2 hPa NNE 10.0 km/h 14.8 km/h 77% 0.0 mm CLR
20:34 14.4 °C 10.4 °C 1020.3 hPa NNW 10.0 km/h 11.1 km/h 77% 0.0 mm CLR
20:39 14.3 °C 10.5 °C 1020.3 hPa NNW 7.6 km/h 13.0 km/h 78% 0.0 mm CLR
20:44 14.3 °C 10.5 °C 1020.3 hPa NNW 7.6 km/h 9.5 km/h 78% 0.0 mm CLR
20:49 14.2 °C 10.4 °C 1020.5 hPa NW 6.4 km/h 11.1 km/h 78% 0.0 mm CLR
20:54 14.1 °C 10.5 °C 1020.5 hPa NNW 6.4 km/h 7.4 km/h 79% 0.0 mm CLR
20:59 14.1 °C 10.5 °C 1020.5 hPa NW 5.8 km/h 7.4 km/h 79% 0.0 mm CLR
21:04 14.0 °C 10.6 °C 1020.7 hPa NNW 5.8 km/h 7.4 km/h 80% 0.0 mm CLR
21:09 13.9 °C 10.5 °C 1020.7 hPa NNW 4.7 km/h 5.6 km/h 80% 0.0 mm CLR
21:14 13.9 °C 10.5 °C 1020.7 hPa ENE 4.7 km/h 3.9 km/h 80% 0.0 mm CLR
21:19 13.9 °C 10.7 °C 1020.6 hPa North 2.9 km/h 7.4 km/h 81% 0.0 mm CLR
21:24 13.9 °C 10.7 °C 1020.6 hPa North 2.9 km/h 4.7 km/h 81% 0.0 mm CLR
21:29 13.9 °C 10.7 °C 1020.6 hPa North 3.2 km/h   81% 0.0 mm CLR
21:34 13.9 °C 10.7 °C 1020.6 hPa North 3.2 km/h   81% 0.0 mm CLR
21:39 13.9 °C 10.7 °C 1020.6 hPa Calm     81% 0.0 mm CLR
21:44 13.9 °C 10.7 °C 1020.6 hPa Calm     81% 0.0 mm CLR
21:49 13.9 °C 10.7 °C 1020.7 hPa Calm   7.4 km/h 81% 0.0 mm CLR
21:54 13.9 °C 10.7 °C 1020.7 hPa Calm   7.4 km/h 81% 0.0 mm CLR
21:59 13.9 °C 10.7 °C 1020.7 hPa WNW 3.2 km/h 5.0 km/h 81% 0.0 mm CLR
22:04 13.9 °C 10.7 °C 1020.8 hPa WNW 3.2 km/h 3.7 km/h 81% 0.0 mm CLR
22:09 13.9 °C 10.7 °C 1020.8 hPa WNW 3.2 km/h 5.6 km/h 81% 0.0 mm CLR
22:14 13.9 °C 10.7 °C 1020.8 hPa WNW 3.2 km/h 7.4 km/h 81% 0.0 mm CLR
22:19 13.9 °C 10.7 °C 1020.9 hPa WNW 4.7 km/h 7.4 km/h 81% 0.0 mm CLR
22:24 13.8 °C 10.6 °C 1020.9 hPa WNW 4.7 km/h 5.6 km/h 81% 0.0 mm CLR
22:29 13.8 °C 10.6 °C 1020.9 hPa WNW 4.7 km/h 7.4 km/h 81% 0.0 mm CLR
22:34 13.8 °C 10.6 °C 1020.8 hPa West 4.7 km/h 5.6 km/h 81% 0.0 mm CLR
22:39 13.8 °C 10.6 °C 1020.8 hPa West 3.9 km/h 5.0 km/h 81% 0.0 mm CLR
22:44 13.8 °C 10.4 °C 1020.8 hPa West 3.9 km/h 5.8 km/h 80% 0.0 mm CLR
22:49 13.9 °C 10.5 °C 1020.7 hPa West 2.9 km/h 5.6 km/h 80% 0.0 mm CLR
22:54 13.9 °C 10.5 °C 1020.7 hPa West 2.9 km/h 5.6 km/h 80% 0.0 mm CLR
22:59 14.0 °C 10.4 °C 1020.7 hPa West 3.9 km/h 5.6 km/h 79% 0.0 mm CLR
23:04 14.1 °C 10.3 °C 1020.8 hPa West 3.9 km/h 5.6 km/h 78% 0.0 mm CLR
23:09 14.0 °C 10.1 °C 1020.8 hPa WSW 3.2 km/h 7.4 km/h 77% 0.0 mm CLR
23:14 13.9 °C 9.9 °C 1020.8 hPa WSW 3.2 km/h 7.4 km/h 77% 0.0 mm CLR
23:19 13.9 °C 9.9 °C 1020.9 hPa South 5.0 km/h 7.4 km/h 77% 0.0 mm CLR
23:24 13.8 °C 9.7 °C 1020.9 hPa SSW 5.0 km/h 9.3 km/h 76% 0.0 mm CLR
23:29 13.9 °C 9.7 °C 1020.9 hPa SW 5.8 km/h 7.4 km/h 76% 0.0 mm CLR
23:34 13.9 °C 9.7 °C 1020.8 hPa SSW 5.8 km/h 9.3 km/h 76% 0.0 mm CLR
23:39 13.9 °C 9.6 °C 1020.8 hPa SW 6.4 km/h 9.3 km/h 75% 0.0 mm CLR
23:44 13.9 °C 9.3 °C 1020.8 hPa South 6.4 km/h 9.3 km/h 74% 0.0 mm CLR
23:49 13.9 °C 9.3 °C 1020.7 hPa SSW 6.4 km/h 9.3 km/h 74% 0.0 mm CLR
23:54 13.8 °C 9.1 °C 1020.7 hPa South 6.4 km/h 9.3 km/h 73% 0.0 mm CLR
23:59 13.7 °C 8.9 °C 1020.7 hPa South 6.4 km/h 9.3 km/h 73% 0.0 mm CLR
Murcia-Puente Tocinos, España
Compliments of Weather Underground - 2.75 mb

La estación de MeteoMurcia.com, publica sus datos en los siguientes proyectos:

Weather Underground PWS IMURCIAP2 Meteoclimatic www.awekas.at

W3Counter
Web Analytics